createdAt,value
2019-05-01T00:02:36.894Z,98068.91
2019-05-01T00:05:27.897Z,98072.55
2019-05-01T00:08:00.055Z,98078.08
2019-05-01T00:10:32.669Z,98081.44
2019-05-01T00:13:05.227Z,98094.42
2019-05-01T00:15:38.929Z,98094.42
2019-05-01T00:18:10.947Z,98095.37
2019-05-01T00:20:42.734Z,98096.54
2019-05-01T00:23:14.653Z,98101.44
2019-05-01T00:25:46.458Z,98101.44
2019-05-01T00:28:19.316Z,98108.25
2019-05-01T00:30:51.158Z,98108.25
2019-05-01T00:33:22.895Z,98112.25
2019-05-01T00:35:54.662Z,98114.31
2019-05-01T00:38:26.302Z,98114.31
2019-05-01T00:40:58.411Z,98116.92
2019-05-01T00:43:30.183Z,98116.92
2019-05-01T00:46:02.599Z,98132.08
2019-05-01T00:48:34.751Z,98131.00
2019-05-01T00:51:06.631Z,98131.00
2019-05-01T00:53:39.725Z,98142.53
2019-05-01T00:56:21.992Z,98150.63
2019-05-01T00:59:02.829Z,98153.52
2019-05-01T01:02:05.866Z,98153.76
2019-05-01T01:04:37.840Z,98153.76
2019-05-01T01:07:09.934Z,98157.30
2019-05-01T01:09:41.563Z,98160.71
2019-05-01T01:12:13.565Z,98168.87
2019-05-01T01:14:45.152Z,98168.87
2019-05-01T01:17:17.209Z,98174.52
2019-05-01T01:19:49.081Z,98174.52
2019-05-01T01:22:21.244Z,98178.03
2019-05-01T01:24:53.683Z,98188.74
2019-05-01T01:27:26.731Z,98188.74
2019-05-01T01:29:58.483Z,98191.41
2019-05-01T01:32:30.648Z,98190.53
2019-05-01T01:35:02.494Z,98190.53
2019-05-01T01:37:35.401Z,98204.14
2019-05-01T01:40:08.288Z,98204.14
2019-05-01T01:42:41.533Z,98212.38
2019-05-01T01:45:32.327Z,98212.38
2019-05-01T01:48:18.301Z,98207.44
2019-05-01T01:50:50.062Z,98225.56
2019-05-01T01:53:24.347Z,98225.56
2019-05-01T01:55:56.889Z,98223.95
2019-05-01T01:58:29.118Z,98226.92
2019-05-01T02:01:22.029Z,98226.92
2019-05-01T02:03:58.724Z,98229.97
2019-05-01T02:06:30.486Z,98229.59
2019-05-01T02:09:02.353Z,98238.14
2019-05-01T02:11:35.626Z,98236.98
2019-05-01T02:14:07.877Z,98236.98
2019-05-01T02:16:39.703Z,98240.73
2019-05-01T02:19:11.635Z,98237.20
2019-05-01T02:21:43.297Z,98248.63
2019-05-01T02:24:15.048Z,98248.63
2019-05-01T02:26:49.650Z,98249.08
2019-05-01T02:29:30.651Z,98249.08
2019-05-01T02:32:02.996Z,98246.70
2019-05-01T02:34:36.958Z,98253.00
2019-05-01T02:37:11.623Z,98253.00
2019-05-01T02:39:46.083Z,98251.41
2019-05-01T02:42:21.008Z,98257.67
2019-05-01T02:44:56.519Z,98261.55
2019-05-01T02:47:33.562Z,98261.55
2019-05-01T02:50:10.690Z,98258.73
2019-05-01T02:52:44.885Z,98258.73
2019-05-01T02:55:29.855Z,98257.88
2019-05-01T02:58:02.724Z,98255.49
2019-05-01T03:00:35.436Z,98253.73
2019-05-01T03:03:08.026Z,98253.61
2019-05-01T03:05:42.587Z,98254.44
2019-05-01T03:08:14.744Z,98261.42
2019-05-01T03:10:47.438Z,98261.42
2019-05-01T03:13:19.720Z,98271.84
2019-05-01T03:15:52.469Z,98269.16
2019-05-01T03:18:30.437Z,98279.47
2019-05-01T03:21:24.210Z,98279.47
2019-05-01T03:24:04.641Z,98274.38
2019-05-01T03:26:37.347Z,98276.28
2019-05-01T03:29:10.173Z,98278.84
2019-05-01T03:31:42.790Z,98279.45
2019-05-01T03:34:14.873Z,98279.45
2019-05-01T03:36:46.969Z,98281.47
2019-05-01T03:39:21.137Z,98282.69
2019-05-01T03:41:54.027Z,98282.69
2019-05-01T03:44:26.317Z,98291.19
2019-05-01T03:46:58.904Z,98291.19
2019-05-01T03:49:31.025Z,98292.16
2019-05-01T03:52:03.590Z,98288.55
2019-05-01T03:54:35.631Z,98288.55
2019-05-01T03:57:12.395Z,98291.73
2019-05-01T03:59:44.275Z,98286.63
2019-05-01T04:02:36.454Z,98283.88
2019-05-01T04:05:08.597Z,98284.50
2019-05-01T04:07:41.880Z,98285.05
2019-05-01T04:10:14.464Z,98285.05
2019-05-01T04:12:47.099Z,98283.98
2019-05-01T04:15:19.478Z,98287.58
2019-05-01T04:17:55.398Z,98287.58
2019-05-01T04:20:27.795Z,98279.94
2019-05-01T04:23:00.847Z,98279.94
2019-05-01T04:25:36.662Z,98275.07
2019-05-01T04:28:26.365Z,98279.38
2019-05-01T04:31:14.731Z,98278.66
2019-05-01T04:33:48.437Z,98279.22
2019-05-01T04:36:27.255Z,98284.58
2019-05-01T04:38:59.775Z,98278.56
2019-05-01T04:41:32.148Z,98282.92
2019-05-01T04:44:04.223Z,98287.75
2019-05-01T04:46:37.335Z,98289.58
2019-05-01T04:49:09.669Z,98285.27
2019-05-01T04:51:42.209Z,98285.27
2019-05-01T04:54:14.717Z,98284.70
2019-05-01T04:56:47.280Z,98288.89
2019-05-01T04:59:22.692Z,98288.89
2019-05-01T05:01:58.274Z,98292.42
2019-05-01T05:04:30.162Z,98292.42
2019-05-01T05:07:03.026Z,98291.23
2019-05-01T05:09:45.616Z,98290.34
2019-05-01T05:12:30.923Z,98285.98
2019-05-01T05:15:20.706Z,98285.98
2019-05-01T05:17:52.583Z,98289.55
2019-05-01T05:20:25.097Z,98286.13
2019-05-01T05:22:57.262Z,98283.53
2019-05-01T05:25:29.409Z,98277.92
2019-05-01T05:28:02.039Z,98277.92
2019-05-01T05:30:34.671Z,98275.89
2019-05-01T05:33:18.225Z,98275.89
2019-05-01T05:35:44.019Z,98269.94
2019-05-01T05:38:24.795Z,98271.13
2019-05-01T05:41:00.371Z,98271.13
2019-05-01T05:43:32.574Z,98271.02
2019-05-01T05:46:05.073Z,98269.38
2019-05-01T05:48:36.897Z,98263.86
2019-05-01T05:51:18.940Z,98264.74
2019-05-01T05:53:56.587Z,98264.74
2019-05-01T05:56:34.135Z,98259.55
2019-05-01T05:59:12.763Z,98257.31
2019-05-01T06:01:55.794Z,98237.82
2019-05-01T06:04:58.764Z,98237.82
2019-05-01T06:07:46.603Z,98240.34
2019-05-01T06:10:29.608Z,98239.85
2019-05-01T06:13:21.838Z,98239.85
2019-05-01T06:16:05.203Z,98234.64
2019-05-01T06:18:54.154Z,98235.63
2019-05-01T06:21:42.576Z,98236.84
2019-05-01T06:24:21.191Z,98224.83
2019-05-01T06:26:53.200Z,98224.83
2019-05-01T06:29:25.146Z,98216.55
2019-05-01T06:31:58.851Z,98216.55
2019-05-01T06:34:31.366Z,98211.69
2019-05-01T06:37:03.283Z,98209.16
2019-05-01T06:39:35.764Z,98206.88
2019-05-01T06:42:09.748Z,98206.52
2019-05-01T06:44:54.196Z,98206.52
2019-05-01T06:47:44.296Z,98202.91
2019-05-01T06:50:37.088Z,98200.63
2019-05-01T06:53:08.093Z,98187.87
2019-05-01T06:55:39.992Z,98187.23
2019-05-01T06:58:14.745Z,98187.23
2019-05-01T07:00:45.456Z,98177.52
2019-05-01T07:03:17.841Z,98177.52
2019-05-01T07:05:54.380Z,98172.69
2019-05-01T07:08:24.805Z,98169.02
2019-05-01T07:10:57.449Z,98170.74
2019-05-01T07:13:29.114Z,98168.05
2019-05-01T07:16:03.259Z,98168.05
2019-05-01T07:18:36.145Z,98153.20
2019-05-01T07:21:08.048Z,98153.20
2019-05-01T07:23:39.885Z,98154.30
2019-05-01T07:26:13.733Z,98145.53
2019-05-01T07:28:47.242Z,98136.45
2019-05-01T07:31:19.821Z,98136.45
2019-05-01T07:33:52.477Z,98137.71
2019-05-01T07:36:24.745Z,98121.53
2019-05-01T07:38:56.594Z,98116.20
2019-05-01T07:41:29.279Z,98116.20
2019-05-01T07:44:16.281Z,98109.88
2019-05-01T07:47:06.913Z,98101.91
2019-05-01T07:50:05.594Z,98101.91
2019-05-01T07:52:37.787Z,98089.84
2019-05-01T07:55:13.139Z,98084.64
2019-05-01T07:57:46.319Z,98084.64
2019-05-01T08:00:29.660Z,98081.66
2019-05-01T08:03:02.637Z,98083.66
2019-05-01T08:05:35.620Z,98078.02
2019-05-01T08:08:08.178Z,98078.02
2019-05-01T08:10:40.980Z,98064.42
2019-05-01T08:13:12.747Z,98064.42
2019-05-01T08:15:44.584Z,98056.84
2019-05-01T08:18:24.107Z,98051.52
2019-05-01T08:21:08.381Z,98051.52
2019-05-01T08:23:42.640Z,98045.83
2019-05-01T08:26:14.226Z,98045.83
2019-05-01T08:29:06.835Z,98033.05
2019-05-01T08:31:48.784Z,98031.87
2019-05-01T08:34:25.408Z,98027.73
2019-05-01T08:36:55.853Z,98015.44
2019-05-01T08:39:28.378Z,98009.30
2019-05-01T08:42:03.070Z,98009.30
2019-05-01T08:44:36.690Z,97999.61
2019-05-01T08:47:27.763Z,97999.61
2019-05-01T08:50:05.453Z,97997.28
2019-05-01T08:52:37.422Z,97991.36
2019-05-01T08:55:10.837Z,97991.36
2019-05-01T08:57:42.953Z,97982.08
2019-05-01T09:00:15.190Z,97976.25
2019-05-01T09:02:47.120Z,97976.25
2019-05-01T09:05:28.558Z,97976.05
2019-05-01T09:07:55.957Z,97970.16
2019-05-01T09:10:29.017Z,97968.43
2019-05-01T09:13:00.817Z,97963.66
2019-05-01T09:15:32.902Z,97959.60
2019-05-01T09:18:04.551Z,97957.32
2019-05-01T09:20:37.334Z,97957.32
2019-05-01T09:23:13.901Z,97955.38
2019-05-01T09:25:49.546Z,97944.23
2019-05-01T09:28:27.680Z,97946.38
2019-05-01T09:31:03.375Z,97941.70
2019-05-01T09:33:37.159Z,97941.70
2019-05-01T09:36:09.092Z,97937.95
2019-05-01T09:38:41.580Z,97933.27
2019-05-01T09:41:14.578Z,97929.02
2019-05-01T09:43:46.804Z,97929.02
2019-05-01T09:46:18.813Z,97930.66
2019-05-01T09:48:51.500Z,97931.78
2019-05-01T09:51:47.525Z,97926.97
2019-05-01T09:54:38.187Z,97917.97
2019-05-01T09:57:10.161Z,97918.69
2019-05-01T09:59:42.403Z,97913.80
2019-05-01T10:02:15.037Z,97903.05
2019-05-01T10:04:46.707Z,97905.94
2019-05-01T10:07:19.371Z,97905.94
2019-05-01T10:09:52.219Z,97909.04
2019-05-01T10:12:25.778Z,97909.04
2019-05-01T10:14:57.664Z,97900.47
2019-05-01T10:17:29.552Z,97900.47
2019-05-01T10:20:01.359Z,97900.02
2019-05-01T10:22:37.296Z,97888.48
2019-05-01T10:25:08.467Z,97888.48
2019-05-01T10:27:44.332Z,97891.38
2019-05-01T10:30:24.283Z,97881.83
2019-05-01T10:33:00.611Z,97882.73
2019-05-01T10:35:42.988Z,97882.73
2019-05-01T10:38:14.015Z,97883.03
2019-05-01T10:40:46.521Z,97874.55
2019-05-01T10:43:18.969Z,97873.48
2019-05-01T10:45:50.900Z,97873.29
2019-05-01T10:48:22.474Z,97866.34
2019-05-01T10:50:54.776Z,97866.34
2019-05-01T10:53:26.545Z,97866.35
2019-05-01T10:55:59.471Z,97866.35
2019-05-01T10:58:31.561Z,97863.03
2019-05-01T11:01:16.102Z,97855.33
2019-05-01T11:03:47.849Z,97855.33
2019-05-01T11:06:19.767Z,97853.98
2019-05-01T11:08:51.976Z,97853.98
2019-05-01T11:11:23.902Z,97852.44
2019-05-01T11:13:56.036Z,97852.44
2019-05-01T11:16:28.048Z,97848.28
2019-05-01T11:18:59.719Z,97848.28
2019-05-01T11:21:31.559Z,97848.34
2019-05-01T11:24:03.092Z,97851.27
2019-05-01T11:26:35.319Z,97850.17
2019-05-01T11:29:07.366Z,97852.03
2019-05-01T11:31:49.069Z,97859.39
2019-05-01T11:34:38.647Z,97851.84
2019-05-01T11:37:28.825Z,97845.23
2019-05-01T11:40:31.984Z,97853.38
2019-05-01T11:43:03.681Z,97852.34
2019-05-01T11:45:35.989Z,97844.98
2019-05-01T11:48:08.223Z,97844.98
2019-05-01T11:50:40.087Z,97850.27
2019-05-01T11:53:11.935Z,97844.52
2019-05-01T11:55:43.764Z,97854.32
2019-05-01T11:58:15.809Z,97854.32
2019-05-01T12:00:48.781Z,97856.67
2019-05-01T12:03:23.837Z,97852.62
2019-05-01T12:05:55.489Z,97849.98
2019-05-01T12:08:27.365Z,97849.98
2019-05-01T12:10:59.906Z,97863.97
2019-05-01T12:13:43.249Z,97861.22
2019-05-01T12:16:16.510Z,97859.84
2019-05-01T12:18:48.292Z,97859.84
2019-05-01T12:21:20.068Z,97867.55
2019-05-01T12:23:51.868Z,97858.08
2019-05-01T12:26:23.891Z,97865.13
2019-05-01T12:28:55.528Z,97863.77
2019-05-01T12:31:27.287Z,97861.78
2019-05-01T12:33:59.007Z,97861.57
2019-05-01T12:36:36.593Z,97867.39
2019-05-01T12:39:06.565Z,97867.39
2019-05-01T12:41:46.048Z,97869.19
2019-05-01T12:44:18.091Z,97869.48
2019-05-01T12:46:59.288Z,97870.50
2019-05-01T12:49:31.398Z,97875.53
2019-05-01T12:52:10.715Z,97880.64
2019-05-01T12:55:03.204Z,97879.89
2019-05-01T12:57:35.014Z,97879.89
2019-05-01T13:00:09.274Z,97891.66
2019-05-01T13:02:41.317Z,97889.11
2019-05-01T13:05:13.218Z,97883.88
2019-05-01T13:07:45.103Z,97883.88
2019-05-01T13:10:17.053Z,97886.31
2019-05-01T13:12:48.910Z,97890.56
2019-05-01T13:15:20.698Z,97886.80
2019-05-01T13:17:53.150Z,97886.80
2019-05-01T13:20:24.526Z,97899.36
2019-05-01T13:22:56.372Z,97899.36
2019-05-01T13:25:27.817Z,97896.68
2019-05-01T13:28:24.145Z,97905.34
2019-05-01T13:31:14.680Z,97905.34
2019-05-01T13:33:46.943Z,97908.06
2019-05-01T13:36:18.703Z,97914.94
2019-05-01T13:38:50.613Z,97914.94
2019-05-01T13:41:22.196Z,97922.70
2019-05-01T13:43:53.879Z,97916.63
2019-05-01T13:46:25.604Z,97929.97
2019-05-01T13:48:57.536Z,97932.66
2019-05-01T13:51:29.204Z,97932.66
2019-05-01T13:54:01.711Z,97933.42
2019-05-01T13:56:33.487Z,97937.81
2019-05-01T13:59:07.456Z,97938.52
2019-05-01T14:01:39.462Z,97944.62
2019-05-01T14:04:11.872Z,97960.50
2019-05-01T14:06:43.796Z,97960.50
2019-05-01T14:09:17.553Z,97964.63
2019-05-01T14:11:49.863Z,97964.63
2019-05-01T14:14:21.631Z,97967.09
2019-05-01T14:16:53.440Z,97977.08
2019-05-01T14:19:25.153Z,97977.11
2019-05-01T14:22:21.322Z,97977.92
2019-05-01T14:24:56.794Z,97987.65
2019-05-01T14:27:28.558Z,97990.34
2019-05-01T14:30:00.274Z,97996.66
2019-05-01T14:32:32.124Z,97999.50
2019-05-01T14:35:03.715Z,97999.50
2019-05-01T14:37:54.025Z,98003.61
2019-05-01T14:40:27.471Z,98003.61
2019-05-01T14:42:59.379Z,98011.00
2019-05-01T14:45:31.390Z,98014.48
2019-05-01T14:48:03.495Z,98014.86
2019-05-01T14:50:35.851Z,98016.81
2019-05-01T14:53:08.016Z,98023.95
2019-05-01T14:55:40.507Z,98022.38
2019-05-01T14:58:13.510Z,98023.81
2019-05-01T15:00:45.291Z,98031.34
2019-05-01T15:03:17.487Z,98034.32
2019-05-01T15:05:49.354Z,98034.32
2019-05-01T15:08:21.265Z,98049.44
2019-05-01T15:10:53.610Z,98049.44
2019-05-01T15:13:34.998Z,98052.98
2019-05-01T15:16:14.085Z,98052.98
2019-05-01T15:19:07.973Z,98058.37
2019-05-01T15:21:40.123Z,98060.88
2019-05-01T15:24:11.898Z,98065.55
2019-05-01T15:26:43.830Z,98067.07
2019-05-01T15:29:15.679Z,98069.19
2019-05-01T15:31:47.419Z,98077.55
2019-05-01T15:34:18.765Z,98083.86
2019-05-01T15:36:50.847Z,98090.73
2019-05-01T15:39:37.193Z,98090.73
2019-05-01T15:42:26.686Z,98097.23
2019-05-01T15:44:58.610Z,98099.36
2019-05-01T15:47:30.423Z,98108.85
2019-05-01T15:50:02.299Z,98110.20
2019-05-01T15:52:33.996Z,98119.59
2019-05-01T15:55:06.372Z,98119.59
2019-05-01T15:57:38.303Z,98124.07
2019-05-01T16:00:13.276Z,98125.73
2019-05-01T16:02:45.795Z,98124.25
2019-05-01T16:05:17.756Z,98129.62
2019-05-01T16:07:49.473Z,98131.84
2019-05-01T16:10:26.649Z,98142.89
2019-05-01T16:13:01.012Z,98142.89
2019-05-01T16:15:36.356Z,98139.47
2019-05-01T16:18:08.293Z,98147.98
2019-05-01T16:20:39.743Z,98143.73
2019-05-01T16:23:11.522Z,98143.73
2019-05-01T16:25:43.227Z,98147.97
2019-05-01T16:28:15.092Z,98147.97
2019-05-01T16:30:47.233Z,98143.38
2019-05-01T16:33:19.094Z,98143.38
2019-05-01T16:35:51.498Z,98144.19
2019-05-01T16:38:37.260Z,98135.44
2019-05-01T16:41:09.727Z,98137.66
2019-05-01T16:43:42.057Z,98137.66
2019-05-01T16:46:13.706Z,98134.37
2019-05-01T16:48:45.886Z,98129.48
2019-05-01T16:51:17.515Z,98140.80
2019-05-01T16:53:49.227Z,98162.08
2019-05-01T16:56:20.965Z,98166.97
2019-05-01T16:58:52.908Z,98172.49
2019-05-01T17:01:49.795Z,98169.46
2019-05-01T17:04:30.104Z,98169.46
2019-05-01T17:07:17.053Z,98165.82
2019-05-01T17:10:14.240Z,98168.18
2019-05-01T17:12:49.648Z,98168.18
2019-05-01T17:15:29.251Z,98170.47
2019-05-01T17:18:01.265Z,98163.24
2019-05-01T17:20:33.258Z,98157.96
2019-05-01T17:23:06.491Z,98148.34
2019-05-01T17:25:38.210Z,98133.06
2019-05-01T17:28:10.291Z,98133.06
2019-05-01T17:30:44.700Z,98136.20
2019-05-01T17:33:20.655Z,98135.58
2019-05-01T17:35:50.198Z,98135.58
2019-05-01T17:38:22.228Z,98143.16
2019-05-01T17:40:54.108Z,98147.64
2019-05-01T17:43:26.322Z,98150.78
2019-05-01T17:45:57.870Z,98150.58
2019-05-01T17:48:33.750Z,98150.58
2019-05-01T17:51:03.537Z,98165.74
2019-05-01T17:53:35.158Z,98161.09
2019-05-01T17:56:10.110Z,98160.10
2019-05-01T17:58:40.271Z,98156.49
2019-05-01T18:01:33.410Z,98143.09
2019-05-01T18:04:19.438Z,98143.09
2019-05-01T18:06:51.742Z,98134.95
2019-05-01T18:09:23.526Z,98134.95
2019-05-01T18:11:55.267Z,98130.31
2019-05-01T18:14:26.956Z,98125.16
2019-05-01T18:16:59.404Z,98126.84
2019-05-01T18:19:31.237Z,98126.84
2019-05-01T18:22:16.078Z,98127.84
2019-05-01T18:25:06.827Z,98120.52
2019-05-01T18:28:16.407Z,98123.81
2019-05-01T18:30:51.683Z,98124.28
2019-05-01T18:33:25.857Z,98124.28
2019-05-01T18:35:55.648Z,98116.73
2019-05-01T18:38:43.016Z,98116.73
2019-05-01T18:41:27.400Z,98120.61
2019-05-01T18:43:58.946Z,98116.46
2019-05-01T18:46:30.961Z,98116.46
2019-05-01T18:49:02.782Z,98114.42
2019-05-01T18:51:36.231Z,98110.13
2019-05-01T18:54:08.020Z,98103.48
2019-05-01T18:56:39.765Z,98098.62
2019-05-01T18:59:11.596Z,98098.62
2019-05-01T19:01:48.408Z,98103.95
2019-05-01T19:04:18.383Z,98098.82
2019-05-01T19:06:51.382Z,98101.00
2019-05-01T19:09:29.696Z,98095.84
2019-05-01T19:11:56.480Z,98097.38
2019-05-01T19:14:30.641Z,98097.38
2019-05-01T19:17:02.060Z,98089.77
2019-05-01T19:19:33.821Z,98096.34
2019-05-01T19:22:06.393Z,98096.34
2019-05-01T19:24:39.994Z,98090.95
2019-05-01T19:27:14.171Z,98097.77
2019-05-01T19:29:47.257Z,98094.28
2019-05-01T19:32:19.995Z,98090.00
2019-05-01T19:34:53.747Z,98098.05
2019-05-01T19:37:29.265Z,98091.78
2019-05-01T19:39:59.302Z,98086.17
2019-05-01T19:42:31.031Z,98078.31
2019-05-01T19:45:02.609Z,98071.51
2019-05-01T19:47:35.379Z,98075.02
2019-05-01T19:50:10.307Z,98075.02
2019-05-01T19:52:42.390Z,98073.95
2019-05-01T19:55:14.167Z,98074.23
2019-05-01T19:57:45.806Z,98067.75
2019-05-01T20:00:21.761Z,98067.75
2019-05-01T20:02:54.310Z,98063.39
2019-05-01T20:05:28.857Z,98067.64
2019-05-01T20:08:00.884Z,98068.03
2019-05-01T20:10:32.586Z,98067.14
2019-05-01T20:13:07.130Z,98068.58
2019-05-01T20:15:37.441Z,98059.72
2019-05-01T20:18:09.148Z,98059.72
2019-05-01T20:20:41.076Z,98058.86
2019-05-01T20:23:12.716Z,98053.88
2019-05-01T20:25:44.515Z,98045.13
2019-05-01T20:28:16.000Z,98044.41
2019-05-01T20:30:49.527Z,98040.80
2019-05-01T20:33:21.563Z,98042.17
2019-05-01T20:36:00.574Z,98042.17
2019-05-01T20:38:30.385Z,98045.42
2019-05-01T20:41:01.899Z,98039.11
2019-05-01T20:43:38.178Z,98039.11
2019-05-01T20:46:07.664Z,98034.20
2019-05-01T20:48:39.901Z,98029.55
2019-05-01T20:51:11.542Z,98030.53
2019-05-01T20:53:43.250Z,98030.53
2019-05-01T20:56:38.469Z,98028.54
2019-05-01T20:59:10.342Z,98027.85
2019-05-01T21:01:42.822Z,98025.65
2019-05-01T21:04:36.074Z,98024.45
2019-05-01T21:07:19.916Z,98018.08
2019-05-01T21:09:57.303Z,98018.08
2019-05-01T21:12:23.925Z,98016.83
2019-05-01T21:14:55.376Z,98014.94
2019-05-01T21:17:27.257Z,98017.40
2019-05-01T21:19:58.733Z,98016.27
2019-05-01T21:22:30.360Z,98017.82
2019-05-01T21:25:01.886Z,98017.82
2019-05-01T21:27:33.679Z,98011.83
2019-05-01T21:30:06.047Z,98010.59
2019-05-01T21:32:37.516Z,98003.39
2019-05-01T21:35:09.473Z,98013.56
2019-05-01T21:37:41.137Z,98013.56
2019-05-01T21:40:13.718Z,98013.27
2019-05-01T21:42:47.341Z,98006.39
2019-05-01T21:45:18.866Z,98006.39
2019-05-01T21:47:52.756Z,98007.73
2019-05-01T21:50:26.479Z,98005.70
2019-05-01T21:53:03.247Z,98001.98
2019-05-01T21:55:32.435Z,98001.98
2019-05-01T21:58:05.181Z,98001.16
2019-05-01T22:00:40.729Z,97999.92
2019-05-01T22:03:16.592Z,98002.28
2019-05-01T22:05:50.374Z,98001.30
2019-05-01T22:08:22.442Z,98001.30
2019-05-01T22:10:57.570Z,98006.61
2019-05-01T22:13:29.851Z,98006.61
2019-05-01T22:16:08.709Z,98007.75
2019-05-01T22:18:47.138Z,98003.70
2019-05-01T22:21:43.556Z,98000.03
2019-05-01T22:24:41.512Z,98004.44
2019-05-01T22:27:22.967Z,98003.28
2019-05-01T22:30:05.879Z,97999.06
2019-05-01T22:32:41.298Z,97992.45
2019-05-01T22:35:17.120Z,97992.45
2019-05-01T22:37:48.626Z,98006.14
2019-05-01T22:40:25.237Z,98008.67
2019-05-01T22:42:57.479Z,98007.41
2019-05-01T22:45:29.578Z,98013.11
2019-05-01T22:48:01.443Z,98013.11
2019-05-01T22:50:32.868Z,98024.92
2019-05-01T22:53:07.975Z,98034.84
2019-05-01T22:55:37.744Z,98064.67
2019-05-01T22:58:09.143Z,98049.59
2019-05-01T23:00:46.302Z,98049.59
2019-05-01T23:03:25.341Z,98061.27
2019-05-01T23:05:57.069Z,98085.77
2019-05-01T23:08:28.491Z,98069.81
2019-05-01T23:11:00.893Z,98074.16
2019-05-01T23:13:33.128Z,98073.81
2019-05-01T23:16:05.742Z,98083.65
2019-05-01T23:18:37.302Z,98083.65
2019-05-01T23:21:09.760Z,98090.91
2019-05-01T23:23:42.340Z,98088.20
2019-05-01T23:26:16.543Z,98099.67
2019-05-01T23:28:47.509Z,98115.68
2019-05-01T23:31:19.676Z,98119.61
2019-05-01T23:33:51.899Z,98119.61
2019-05-01T23:36:24.031Z,98122.03
2019-05-01T23:38:55.669Z,98113.86
2019-05-01T23:41:44.616Z,98113.13
2019-05-01T23:44:03.404Z,98113.13
2019-05-01T23:46:34.469Z,98117.66
2019-05-01T23:49:05.926Z,98125.24
2019-05-01T23:51:37.769Z,98139.41
2019-05-01T23:54:09.241Z,98143.70
2019-05-01T23:56:40.937Z,98152.23
2019-05-01T23:59:12.702Z,98152.23
